createdAt,value
2022-11-16T00:01:28.421Z,7.00
2022-11-16T00:03:57.553Z,7.00
2022-11-16T00:06:24.671Z,7.00
2022-11-16T00:09:15.084Z,6.90
2022-11-16T00:11:42.048Z,7.00
2022-11-16T00:14:09.054Z,7.10
2022-11-16T00:16:35.926Z,7.10
2022-11-16T00:19:04.884Z,7.00
2022-11-16T00:21:32.132Z,7.10
2022-11-16T00:23:59.555Z,7.10
2022-11-16T00:26:26.513Z,7.10
2022-11-16T00:28:54.757Z,7.20
2022-11-16T00:31:21.975Z,7.10
2022-11-16T00:33:49.402Z,7.10
2022-11-16T00:36:16.928Z,7.10
2022-11-16T00:38:44.207Z,7.00
2022-11-16T00:41:10.984Z,7.10
2022-11-16T00:43:37.877Z,7.10
2022-11-16T00:46:05.353Z,7.10
2022-11-16T00:48:32.421Z,7.20
2022-11-16T00:50:59.383Z,7.30
2022-11-16T00:53:26.287Z,7.20
2022-11-16T00:55:53.086Z,7.20
2022-11-16T00:58:19.893Z,7.20
2022-11-16T01:00:46.726Z,7.20
2022-11-16T01:03:13.481Z,7.20
2022-11-16T01:05:40.255Z,7.10
2022-11-16T01:08:07.295Z,7.10
2022-11-16T01:10:34.745Z,7.10
2022-11-16T01:13:01.510Z,7.10
2022-11-16T01:15:28.453Z,7.20
2022-11-16T01:17:57.355Z,7.20
2022-11-16T01:20:29.291Z,7.20
2022-11-16T01:22:56.519Z,7.30
2022-11-16T01:25:23.365Z,7.20
2022-11-16T01:27:50.265Z,7.20
2022-11-16T01:30:17.191Z,7.20
2022-11-16T01:32:44.209Z,7.20
2022-11-16T01:35:16.245Z,7.20
2022-11-16T01:37:43.021Z,7.30
2022-11-16T01:40:11.275Z,7.20
2022-11-16T01:42:38.503Z,7.20
2022-11-16T01:45:23.440Z,7.10
2022-11-16T01:47:52.195Z,7.10
2022-11-16T01:50:19.458Z,7.10
2022-11-16T01:52:57.479Z,7.10
2022-11-16T01:55:27.123Z,7.00
2022-11-16T01:57:54.884Z,7.10
2022-11-16T02:00:22.665Z,7.00
2022-11-16T02:02:49.494Z,7.00
2022-11-16T02:05:20.140Z,7.00
2022-11-16T02:08:22.781Z,7.10
2022-11-16T02:11:07.286Z,7.10
2022-11-16T02:14:06.331Z,7.10
2022-11-16T02:16:51.759Z,7.20
2022-11-16T02:19:37.360Z,7.30
2022-11-16T02:22:16.741Z,7.10
2022-11-16T02:24:43.818Z,7.10
2022-11-16T02:27:31.703Z,7.10
2022-11-16T02:29:58.709Z,7.00
2022-11-16T02:32:46.209Z,7.10
2022-11-16T02:35:25.239Z,7.00
2022-11-16T02:38:10.472Z,7.00
2022-11-16T02:40:40.018Z,7.00
2022-11-16T02:43:21.170Z,7.00
2022-11-16T02:45:53.485Z,7.00
2022-11-16T02:48:28.827Z,7.00
2022-11-16T02:50:56.247Z,7.10
2022-11-16T02:53:24.545Z,7.10
2022-11-16T02:55:51.321Z,7.10
2022-11-16T02:58:22.661Z,7.00
2022-11-16T03:01:01.846Z,7.00
2022-11-16T03:03:31.396Z,7.00
2022-11-16T03:06:13.733Z,7.00
2022-11-16T03:08:45.915Z,7.00
2022-11-16T03:11:32.422Z,7.00
2022-11-16T03:14:13.553Z,7.00
2022-11-16T03:16:44.972Z,7.00
2022-11-16T03:19:17.190Z,6.90
2022-11-16T03:21:51.509Z,6.90
2022-11-16T03:24:18.606Z,6.90
2022-11-16T03:27:09.804Z,6.80
2022-11-16T03:29:48.386Z,6.90
2022-11-16T03:32:40.448Z,6.80
2022-11-16T03:35:24.364Z,6.80
2022-11-16T03:37:53.686Z,6.80
2022-11-16T03:40:22.719Z,6.80
2022-11-16T03:42:50.125Z,6.80
2022-11-16T03:45:18.680Z,6.90
2022-11-16T03:47:46.176Z,6.90
2022-11-16T03:50:13.364Z,6.90
2022-11-16T03:52:40.130Z,6.90
2022-11-16T03:55:07.351Z,7.00
2022-11-16T03:57:34.173Z,6.90
2022-11-16T04:00:00.925Z,6.90
2022-11-16T04:02:27.665Z,6.90
2022-11-16T04:05:13.152Z,6.90
2022-11-16T04:07:58.599Z,6.90
2022-11-16T04:10:44.009Z,6.80
2022-11-16T04:13:31.247Z,6.80
2022-11-16T04:16:16.979Z,6.90
2022-11-16T04:19:09.969Z,6.90
2022-11-16T04:21:59.405Z,6.90
2022-11-16T04:24:29.844Z,6.90
2022-11-16T04:27:19.026Z,6.90
2022-11-16T04:29:45.996Z,6.90
2022-11-16T04:32:31.760Z,6.90
2022-11-16T04:35:17.442Z,6.90
2022-11-16T04:37:50.623Z,6.90
2022-11-16T04:40:19.140Z,7.00
2022-11-16T04:43:00.846Z,7.00
2022-11-16T04:45:46.781Z,7.00
2022-11-16T04:48:14.871Z,6.90
2022-11-16T04:50:41.886Z,7.00
2022-11-16T04:53:08.944Z,6.90
2022-11-16T04:55:36.093Z,7.00
2022-11-16T04:58:03.203Z,7.00
2022-11-16T05:00:30.227Z,7.00
2022-11-16T05:03:01.232Z,7.00
2022-11-16T05:05:28.388Z,7.10
2022-11-16T05:07:55.168Z,7.00
2022-11-16T05:10:22.333Z,6.90
2022-11-16T05:12:49.172Z,6.80
2022-11-16T05:15:17.689Z,6.90
2022-11-16T05:17:44.540Z,7.00
2022-11-16T05:20:30.217Z,6.90
2022-11-16T05:22:58.031Z,6.90
2022-11-16T05:25:24.914Z,7.00
2022-11-16T05:27:51.650Z,7.10
2022-11-16T05:30:18.851Z,6.90
2022-11-16T05:32:45.730Z,6.90
2022-11-16T05:35:12.529Z,6.90
2022-11-16T05:37:39.305Z,6.90
2022-11-16T05:40:07.483Z,6.80
2022-11-16T05:42:34.366Z,6.80
2022-11-16T05:45:01.292Z,7.00
2022-11-16T05:47:28.064Z,7.00
2022-11-16T05:49:54.809Z,7.00
2022-11-16T05:52:21.595Z,7.00
2022-11-16T05:54:48.360Z,7.10
2022-11-16T05:57:15.467Z,7.20
2022-11-16T05:59:42.640Z,7.10
2022-11-16T06:02:09.372Z,7.10
2022-11-16T06:04:36.155Z,7.10
2022-11-16T06:07:02.981Z,7.10
2022-11-16T06:09:29.811Z,7.10
2022-11-16T06:11:58.925Z,7.20
2022-11-16T06:14:25.733Z,7.10
2022-11-16T06:16:52.428Z,7.00
2022-11-16T06:19:19.253Z,7.10
2022-11-16T06:21:46.011Z,7.10
2022-11-16T06:24:12.854Z,7.20
2022-11-16T06:26:39.589Z,7.30
2022-11-16T06:29:06.378Z,7.30
2022-11-16T06:31:33.201Z,7.30
2022-11-16T06:34:00.051Z,7.20
2022-11-16T06:36:26.980Z,7.10
2022-11-16T06:38:53.737Z,7.00
2022-11-16T06:41:20.892Z,7.00
2022-11-16T06:43:47.699Z,7.00
2022-11-16T06:46:14.451Z,7.00
2022-11-16T06:48:41.224Z,7.00
2022-11-16T06:51:08.320Z,7.00
2022-11-16T06:53:35.268Z,6.80
2022-11-16T06:56:03.581Z,6.70
2022-11-16T06:58:32.276Z,6.80
2022-11-16T07:01:06.971Z,6.80
2022-11-16T07:03:33.774Z,6.70
2022-11-16T07:06:05.724Z,6.60
2022-11-16T07:08:32.848Z,6.60
2022-11-16T07:11:04.400Z,6.60
2022-11-16T07:13:36.213Z,6.60
2022-11-16T07:16:08.595Z,6.50
2022-11-16T07:18:37.238Z,6.50
2022-11-16T07:21:13.385Z,6.40
2022-11-16T07:23:40.431Z,6.40
2022-11-16T07:26:08.329Z,6.40
2022-11-16T07:28:35.543Z,6.40
2022-11-16T07:31:03.667Z,6.40
2022-11-16T07:33:30.779Z,6.30
2022-11-16T07:36:05.782Z,6.30
2022-11-16T07:38:33.510Z,6.20
2022-11-16T07:41:02.231Z,6.10
2022-11-16T07:43:35.114Z,6.20
2022-11-16T07:46:28.298Z,6.20
2022-11-16T07:48:50.574Z,6.30
2022-11-16T07:51:18.024Z,6.30
2022-11-16T07:53:45.123Z,6.20
2022-11-16T07:56:12.949Z,6.20
2022-11-16T07:58:40.296Z,6.30
2022-11-16T08:01:11.223Z,6.30
2022-11-16T08:03:39.119Z,6.30
2022-11-16T08:06:07.381Z,6.20
2022-11-16T08:08:34.333Z,6.40
2022-11-16T08:11:03.414Z,6.40
2022-11-16T08:13:34.047Z,6.30
2022-11-16T08:16:10.704Z,6.20
2022-11-16T08:18:38.327Z,6.20
2022-11-16T08:21:07.616Z,6.30
2022-11-16T08:23:37.045Z,6.30
2022-11-16T08:26:06.563Z,6.30
2022-11-16T08:28:33.919Z,6.20
2022-11-16T08:31:07.676Z,6.10
2022-11-16T08:33:34.440Z,6.20
2022-11-16T08:36:10.858Z,6.10
2022-11-16T08:38:40.707Z,6.10
2022-11-16T08:41:08.101Z,6.20
2022-11-16T08:43:35.921Z,6.30
2022-11-16T08:46:03.300Z,6.20
2022-11-16T08:48:30.711Z,6.20
2022-11-16T08:51:24.159Z,6.10
2022-11-16T08:53:58.450Z,6.10
2022-11-16T08:56:27.384Z,6.10
2022-11-16T08:58:58.362Z,6.20
2022-11-16T09:01:28.756Z,6.10
2022-11-16T09:03:56.212Z,6.10
2022-11-16T09:06:25.472Z,6.10
2022-11-16T09:08:52.734Z,6.10
2022-11-16T09:11:21.979Z,6.10
2022-11-16T09:13:50.515Z,6.20
2022-11-16T09:16:20.803Z,6.20
2022-11-16T09:18:49.665Z,6.30
2022-11-16T09:21:24.936Z,6.30
2022-11-16T09:23:53.095Z,6.20
2022-11-16T09:26:22.952Z,6.20
2022-11-16T09:29:01.067Z,6.30
2022-11-16T09:31:31.001Z,6.30
2022-11-16T09:33:58.907Z,6.30
2022-11-16T09:36:27.686Z,6.40
2022-11-16T09:39:23.768Z,6.50
2022-11-16T09:41:48.087Z,6.40
2022-11-16T09:44:33.086Z,6.40
2022-11-16T09:47:02.122Z,6.40
2022-11-16T09:49:35.873Z,6.50
2022-11-16T09:52:06.357Z,6.40
2022-11-16T09:54:38.991Z,6.30
2022-11-16T09:57:12.552Z,6.20
2022-11-16T09:59:49.710Z,6.20
2022-11-16T10:02:28.880Z,6.20
2022-11-16T10:05:34.378Z,6.20
2022-11-16T10:08:28.198Z,6.20
2022-11-16T10:11:02.557Z,6.30
2022-11-16T10:13:53.348Z,6.20
2022-11-16T10:16:44.782Z,6.20
2022-11-16T10:19:23.351Z,6.20
2022-11-16T10:22:08.990Z,6.30
2022-11-16T10:25:07.249Z,6.20
2022-11-16T10:27:55.522Z,6.20
2022-11-16T10:30:23.057Z,6.20
2022-11-16T10:33:14.411Z,6.20
2022-11-16T10:35:45.591Z,6.10
2022-11-16T10:38:27.086Z,6.10
2022-11-16T10:41:01.409Z,6.10
2022-11-16T10:43:32.128Z,6.10
2022-11-16T10:46:04.988Z,6.10
2022-11-16T10:48:39.629Z,6.20
2022-11-16T10:51:08.066Z,6.20
2022-11-16T10:53:36.639Z,6.20
2022-11-16T10:56:25.973Z,6.10
2022-11-16T10:59:00.720Z,6.20
2022-11-16T11:01:38.299Z,6.20
2022-11-16T11:04:14.350Z,6.20
2022-11-16T11:06:41.756Z,6.20
2022-11-16T11:09:20.046Z,6.20
2022-11-16T11:12:22.118Z,6.10
2022-11-16T11:15:26.885Z,6.10
2022-11-16T11:18:31.583Z,6.10
2022-11-16T11:21:06.492Z,6.10
2022-11-16T11:24:16.381Z,6.10
2022-11-16T11:26:53.703Z,6.00
2022-11-16T11:29:33.221Z,6.00
2022-11-16T11:32:13.383Z,5.90
2022-11-16T11:34:43.671Z,5.90
2022-11-16T11:37:33.136Z,5.80
2022-11-16T11:40:05.928Z,5.80
2022-11-16T11:42:32.659Z,5.70
2022-11-16T11:45:09.130Z,5.70
2022-11-16T11:48:00.546Z,5.60
2022-11-16T11:50:39.365Z,5.60
2022-11-16T11:53:41.311Z,5.60
2022-11-16T11:56:12.071Z,5.60
2022-11-16T11:58:40.820Z,5.60
2022-11-16T12:01:10.640Z,5.60
2022-11-16T12:04:05.777Z,5.50
2022-11-16T12:06:59.983Z,5.70
2022-11-16T12:09:26.783Z,5.60
2022-11-16T12:11:56.542Z,5.60
2022-11-16T12:14:51.297Z,5.60
2022-11-16T12:17:34.182Z,5.50
2022-11-16T12:20:06.852Z,5.60
2022-11-16T12:23:03.603Z,5.60
2022-11-16T12:26:18.412Z,5.70
2022-11-16T12:29:20.800Z,5.60
2022-11-16T12:32:05.709Z,5.70
2022-11-16T12:34:44.663Z,5.70
2022-11-16T12:37:18.326Z,5.70
2022-11-16T12:40:03.780Z,5.60
2022-11-16T12:42:48.875Z,5.60
2022-11-16T12:45:53.188Z,5.60
2022-11-16T12:48:41.848Z,5.50
2022-11-16T12:51:35.025Z,5.50
2022-11-16T12:54:37.190Z,5.50
2022-11-16T12:57:18.910Z,5.40
2022-11-16T13:00:11.962Z,5.40
2022-11-16T13:03:00.737Z,5.40
2022-11-16T13:05:33.493Z,5.30
2022-11-16T13:08:08.237Z,5.30
2022-11-16T13:10:43.033Z,5.30
2022-11-16T13:13:36.012Z,5.40
2022-11-16T13:16:06.674Z,5.10
2022-11-16T13:18:37.697Z,5.20
2022-11-16T13:21:34.080Z,5.30
2022-11-16T13:24:00.789Z,5.30
2022-11-16T13:26:43.960Z,5.30
2022-11-16T13:29:38.042Z,5.20
2022-11-16T13:32:19.005Z,5.30
2022-11-16T13:34:46.365Z,5.30
2022-11-16T13:37:38.081Z,5.30
2022-11-16T13:40:04.994Z,5.20
2022-11-16T13:42:34.349Z,5.30
2022-11-16T13:45:16.773Z,5.20
2022-11-16T13:47:52.903Z,5.30
2022-11-16T13:50:23.476Z,5.20
2022-11-16T13:55:47.889Z,5.20
2022-11-16T13:58:21.647Z,5.20
2022-11-16T14:00:56.806Z,5.20
2022-11-16T14:03:23.540Z,5.20
2022-11-16T14:05:53.145Z,5.10
2022-11-16T14:08:19.899Z,5.10
2022-11-16T14:10:52.491Z,5.20
2022-11-16T14:13:39.984Z,5.10
2022-11-16T14:16:21.849Z,5.20
2022-11-16T14:18:49.650Z,5.10
2022-11-16T14:21:35.011Z,5.10
2022-11-16T14:24:16.916Z,5.00
2022-11-16T14:27:07.016Z,5.10
2022-11-16T14:29:43.623Z,5.00
2022-11-16T14:32:28.805Z,5.00
2022-11-16T14:34:58.424Z,5.00
2022-11-16T14:37:30.761Z,5.00
2022-11-16T14:40:24.118Z,5.10
2022-11-16T14:43:23.031Z,5.00
2022-11-16T14:45:56.198Z,5.00
2022-11-16T14:48:27.933Z,4.90
2022-11-16T14:51:09.702Z,4.90
2022-11-16T14:53:40.819Z,4.90
2022-11-16T14:56:16.188Z,5.00
2022-11-16T14:58:53.156Z,4.90
2022-11-16T15:01:23.509Z,4.90
2022-11-16T15:04:03.455Z,4.90
2022-11-16T15:06:38.293Z,4.90
2022-11-16T15:09:05.742Z,4.90
2022-11-16T15:11:55.889Z,4.80
2022-11-16T15:14:47.576Z,4.80
2022-11-16T15:17:20.181Z,4.70
2022-11-16T15:19:59.149Z,4.60
2022-11-16T15:22:31.057Z,4.70
2022-11-16T15:25:01.827Z,4.60
2022-11-16T15:27:41.014Z,4.70
2022-11-16T15:30:16.820Z,4.80
2022-11-16T15:32:46.097Z,4.80
2022-11-16T15:35:31.456Z,4.80
2022-11-16T15:38:02.351Z,4.80
2022-11-16T15:40:30.483Z,4.80
2022-11-16T15:43:00.729Z,4.70
2022-11-16T15:45:28.537Z,4.80
2022-11-16T15:47:58.890Z,4.70
2022-11-16T15:50:25.758Z,4.70
2022-11-16T15:52:55.536Z,4.70
2022-11-16T15:55:39.189Z,4.70
2022-11-16T15:58:14.511Z,4.70
2022-11-16T16:00:42.157Z,4.70
2022-11-16T16:03:24.833Z,4.70
2022-11-16T16:05:52.688Z,4.70
2022-11-16T16:08:39.892Z,4.60
2022-11-16T16:11:27.830Z,4.60
2022-11-16T16:14:09.293Z,4.50
2022-11-16T16:16:39.886Z,4.50
2022-11-16T16:19:35.703Z,4.40
2022-11-16T16:22:04.603Z,4.30
2022-11-16T16:24:46.030Z,4.30
2022-11-16T16:27:25.247Z,4.20
2022-11-16T16:30:04.537Z,4.10
2022-11-16T16:32:34.354Z,4.20
2022-11-16T16:35:03.547Z,4.10
2022-11-16T16:37:32.620Z,4.00
2022-11-16T16:40:00.320Z,4.00
2022-11-16T16:42:27.435Z,4.00
2022-11-16T16:44:54.312Z,4.00
2022-11-16T16:47:21.328Z,4.00
2022-11-16T16:49:49.028Z,3.90
2022-11-16T16:52:16.053Z,3.80
2022-11-16T16:54:42.978Z,3.80
2022-11-16T16:57:17.317Z,3.80
2022-11-16T16:59:45.596Z,3.80
2022-11-16T17:02:13.113Z,3.80
2022-11-16T17:04:40.505Z,3.70
2022-11-16T17:07:07.481Z,3.70
2022-11-16T17:09:34.255Z,3.70
2022-11-16T17:12:01.031Z,3.60
2022-11-16T17:14:27.771Z,3.40
2022-11-16T17:16:54.543Z,3.30
2022-11-16T17:19:24.474Z,3.30
2022-11-16T17:21:52.171Z,3.20
2022-11-16T17:24:19.494Z,3.10
2022-11-16T17:26:49.110Z,3.20
2022-11-16T17:29:15.917Z,3.10
2022-11-16T17:31:44.204Z,3.20
2022-11-16T17:34:13.867Z,3.20
2022-11-16T17:36:41.946Z,3.20
2022-11-16T17:39:09.159Z,3.10
2022-11-16T17:41:36.517Z,3.10
2022-11-16T17:44:04.741Z,3.10
2022-11-16T17:46:34.121Z,3.00
2022-11-16T17:49:01.052Z,2.90
2022-11-16T17:51:29.927Z,2.90
2022-11-16T17:53:56.732Z,2.90
2022-11-16T17:56:28.515Z,2.90
2022-11-16T17:59:02.973Z,2.90
2022-11-16T18:01:29.868Z,2.90
2022-11-16T18:03:56.927Z,2.90
2022-11-16T18:06:25.338Z,2.90
2022-11-16T18:08:52.769Z,2.80
2022-11-16T18:11:25.345Z,2.80
2022-11-16T18:14:00.705Z,2.80
2022-11-16T18:16:32.417Z,2.80
2022-11-16T18:19:01.537Z,2.80
2022-11-16T18:21:29.120Z,2.80
2022-11-16T18:23:58.091Z,2.80
2022-11-16T18:26:25.326Z,2.80
2022-11-16T18:28:52.909Z,2.80
2022-11-16T18:31:22.266Z,2.80
2022-11-16T18:33:49.444Z,2.80
2022-11-16T18:36:17.114Z,2.80
2022-11-16T18:38:44.080Z,2.70
2022-11-16T18:41:13.594Z,2.70
2022-11-16T18:43:50.979Z,2.70
2022-11-16T18:46:19.177Z,2.60
2022-11-16T18:48:46.881Z,2.60
2022-11-16T18:51:15.189Z,2.50
2022-11-16T18:53:42.812Z,2.50
2022-11-16T18:56:10.025Z,2.50
2022-11-16T18:58:50.496Z,2.40
2022-11-16T19:01:21.214Z,2.50
2022-11-16T19:03:48.230Z,2.50
2022-11-16T19:06:17.092Z,2.50
2022-11-16T19:08:46.871Z,2.60
2022-11-16T19:11:17.092Z,2.50
2022-11-16T19:13:44.626Z,2.50
2022-11-16T19:16:13.649Z,2.50
2022-11-16T19:18:40.585Z,2.50
2022-11-16T19:21:12.402Z,2.50
2022-11-16T19:23:51.456Z,2.50
2022-11-16T19:26:20.500Z,2.40
2022-11-16T19:28:48.884Z,2.40
2022-11-16T19:31:17.091Z,2.30
2022-11-16T19:33:44.614Z,2.30
2022-11-16T19:36:17.029Z,2.30
2022-11-16T19:38:45.198Z,2.20
2022-11-16T19:41:13.438Z,2.20
2022-11-16T19:43:40.728Z,2.10
2022-11-16T19:46:10.078Z,2.20
2022-11-16T19:48:37.565Z,2.10
2022-11-16T19:51:09.784Z,2.10
2022-11-16T19:53:37.450Z,2.20
2022-11-16T19:56:06.081Z,2.20
2022-11-16T19:58:36.992Z,2.10
2022-11-16T20:01:10.408Z,2.20
2022-11-16T20:03:38.679Z,2.20
2022-11-16T20:06:14.154Z,2.30
2022-11-16T20:08:42.934Z,2.30
2022-11-16T20:11:15.180Z,2.30
2022-11-16T20:13:44.479Z,2.30
2022-11-16T20:16:12.816Z,2.40
2022-11-16T20:18:41.038Z,2.30
2022-11-16T20:21:14.310Z,2.40
2022-11-16T20:23:41.045Z,2.30
2022-11-16T20:26:09.698Z,2.30
2022-11-16T20:28:38.503Z,2.30
2022-11-16T20:31:10.401Z,2.20
2022-11-16T20:33:37.620Z,2.30
2022-11-16T20:36:07.579Z,2.30
2022-11-16T20:38:35.449Z,2.20
2022-11-16T20:41:10.583Z,2.20
2022-11-16T20:43:39.374Z,2.30
2022-11-16T20:46:10.937Z,2.40
2022-11-16T20:48:38.863Z,2.30
2022-11-16T20:51:09.022Z,2.30
2022-11-16T20:53:36.252Z,2.30
2022-11-16T20:56:04.641Z,2.30
2022-11-16T20:58:32.279Z,2.30
2022-11-16T21:01:10.167Z,2.20
2022-11-16T21:03:37.376Z,2.30
2022-11-16T21:06:04.639Z,2.30
2022-11-16T21:08:31.402Z,2.40
2022-11-16T21:10:58.394Z,2.40
2022-11-16T21:13:47.120Z,2.40
2022-11-16T21:16:15.386Z,2.30
2022-11-16T21:18:42.293Z,2.30
2022-11-16T21:21:12.460Z,2.20
2022-11-16T21:23:41.156Z,2.30
2022-11-16T21:26:12.577Z,2.40
2022-11-16T21:28:39.957Z,2.40
2022-11-16T21:31:09.932Z,2.40
2022-11-16T21:33:37.292Z,2.40
2022-11-16T21:36:14.466Z,2.40
2022-11-16T21:38:42.151Z,2.60
2022-11-16T21:41:13.203Z,2.50
2022-11-16T21:43:40.714Z,2.40
2022-11-16T21:46:11.742Z,2.40
2022-11-16T21:48:39.179Z,2.30
2022-11-16T21:51:17.004Z,2.20
2022-11-16T21:53:44.271Z,2.30
2022-11-16T21:56:14.559Z,2.30
2022-11-16T21:58:42.111Z,2.20
2022-11-16T22:01:10.257Z,2.30
2022-11-16T22:03:37.528Z,2.30
2022-11-16T22:06:25.175Z,2.30
2022-11-16T22:08:52.211Z,2.30
2022-11-16T22:11:30.870Z,2.20
2022-11-16T22:13:57.786Z,2.20
2022-11-16T22:16:24.567Z,2.10
2022-11-16T22:18:51.352Z,2.20
2022-11-16T22:21:18.330Z,2.10
2022-11-16T22:23:45.214Z,2.10
2022-11-16T22:26:13.524Z,2.00
2022-11-16T22:28:40.446Z,2.00
2022-11-16T22:31:12.491Z,2.00
2022-11-16T22:33:39.799Z,2.00
2022-11-16T22:36:10.574Z,1.90
2022-11-16T22:38:38.154Z,2.00
2022-11-16T22:41:05.420Z,2.00
2022-11-16T22:43:33.182Z,2.00
2022-11-16T22:46:02.134Z,2.00
2022-11-16T22:48:33.652Z,2.00
2022-11-16T22:51:27.951Z,1.90
2022-11-16T22:53:56.741Z,1.90
2022-11-16T22:56:24.396Z,1.90
2022-11-16T22:58:51.284Z,1.90
2022-11-16T23:01:18.399Z,2.00
2022-11-16T23:03:45.344Z,2.00
2022-11-16T23:06:12.400Z,2.00
2022-11-16T23:08:40.191Z,1.90
2022-11-16T23:11:27.308Z,1.90
2022-11-16T23:14:13.099Z,1.80
2022-11-16T23:16:41.004Z,1.80
2022-11-16T23:19:29.599Z,1.70
2022-11-16T23:22:15.771Z,1.60
2022-11-16T23:25:01.790Z,1.60
2022-11-16T23:27:51.570Z,1.60
2022-11-16T23:30:18.887Z,1.70
2022-11-16T23:32:45.868Z,1.70
2022-11-16T23:35:13.124Z,1.70
2022-11-16T23:37:56.172Z,1.50
2022-11-16T23:40:44.649Z,1.50
2022-11-16T23:43:30.084Z,1.50
2022-11-16T23:45:56.843Z,1.50
2022-11-16T23:48:23.629Z,1.50
2022-11-16T23:50:50.479Z,1.50
2022-11-16T23:53:17.273Z,1.60
2022-11-16T23:55:44.047Z,1.50
2022-11-16T23:58:15.206Z,1.50
